sensor_id;sensor_type;location;lat;lon;timestamp;temperature;humidity
2409;DHT22;8463;48.094;7.970;2022-10-15T00:02:09;16.60;72.50
2409;DHT22;8463;48.094;7.970;2022-10-15T00:04:34;16.50;72.90
2409;DHT22;8463;48.094;7.970;2022-10-15T00:07:00;16.40;73.10
2409;DHT22;8463;48.094;7.970;2022-10-15T00:09:26;16.40;73.10
2409;DHT22;8463;48.094;7.970;2022-10-15T00:11:51;16.60;71.50
2409;DHT22;8463;48.094;7.970;2022-10-15T00:14:17;16.60;72.00
2409;DHT22;8463;48.094;7.970;2022-10-15T00:16:43;16.60;71.50
2409;DHT22;8463;48.094;7.970;2022-10-15T00:19:09;16.60;71.70
2409;DHT22;8463;48.094;7.970;2022-10-15T00:21:35;16.60;72.40
2409;DHT22;8463;48.094;7.970;2022-10-15T00:24:02;16.70;71.00
2409;DHT22;8463;48.094;7.970;2022-10-15T00:26:28;16.70;70.80
2409;DHT22;8463;48.094;7.970;2022-10-15T00:28:57;16.70;70.90
2409;DHT22;8463;48.094;7.970;2022-10-15T00:31:24;16.70;71.20
2409;DHT22;8463;48.094;7.970;2022-10-15T00:33:53;16.60;71.40
2409;DHT22;8463;48.094;7.970;2022-10-15T00:36:22;16.60;72.00
2409;DHT22;8463;48.094;7.970;2022-10-15T00:41:20;16.50;71.40
2409;DHT22;8463;48.094;7.970;2022-10-15T00:43:48;16.60;72.40
2409;DHT22;8463;48.094;7.970;2022-10-15T00:51:32;16.60;71.70
2409;DHT22;8463;48.094;7.970;2022-10-15T00:54:00;16.70;70.70
2409;DHT22;8463;48.094;7.970;2022-10-15T00:56:27;16.80;69.60
2409;DHT22;8463;48.094;7.970;2022-10-15T00:58:56;16.70;70.10
2409;DHT22;8463;48.094;7.970;2022-10-15T01:01:22;16.70;70.60
2409;DHT22;8463;48.094;7.970;2022-10-15T01:03:50;16.70;70.40
2409;DHT22;8463;48.094;7.970;2022-10-15T01:06:16;16.70;70.90
2409;DHT22;8463;48.094;7.970;2022-10-15T01:08:43;16.70;70.60
2409;DHT22;8463;48.094;7.970;2022-10-15T01:17:04;16.60;70.80
2409;DHT22;8463;48.094;7.970;2022-10-15T01:31:29;16.40;72.30
2409;DHT22;8463;48.094;7.970;2022-10-15T01:39:58;16.50;69.40
2409;DHT22;8463;48.094;7.970;2022-10-15T01:42:38;16.50;69.90
2409;DHT22;8463;48.094;7.970;2022-10-15T01:45:09;16.50;70.20
2409;DHT22;8463;48.094;7.970;2022-10-15T01:47:46;16.40;69.80
2409;DHT22;8463;48.094;7.970;2022-10-15T01:50:14;16.40;70.50
2409;DHT22;8463;48.094;7.970;2022-10-15T01:52:42;16.50;69.10
2409;DHT22;8463;48.094;7.970;2022-10-15T01:55:11;16.50;69.30
2409;DHT22;8463;48.094;7.970;2022-10-15T01:57:40;16.50;68.50
2409;DHT22;8463;48.094;7.970;2022-10-15T02:00:07;16.50;69.00
2409;DHT22;8463;48.094;7.970;2022-10-15T02:02:33;16.60;69.50
2409;DHT22;8463;48.094;7.970;2022-10-15T02:04:58;16.50;69.90
2409;DHT22;8463;48.094;7.970;2022-10-15T02:10:30;16.50;71.80
2409;DHT22;8463;48.094;7.970;2022-10-15T02:13:03;16.40;72.70
2409;DHT22;8463;48.094;7.970;2022-10-15T02:15:52;16.40;73.40
2409;DHT22;8463;48.094;7.970;2022-10-15T02:18:29;16.40;72.70
2409;DHT22;8463;48.094;7.970;2022-10-15T02:21:00;16.50;72.20
2409;DHT22;8463;48.094;7.970;2022-10-15T02:26:02;16.40;73.50
2409;DHT22;8463;48.094;7.970;2022-10-15T02:28:29;16.30;73.50
2409;DHT22;8463;48.094;7.970;2022-10-15T02:30:55;16.40;73.50
2409;DHT22;8463;48.094;7.970;2022-10-15T02:33:23;16.40;73.50
2409;DHT22;8463;48.094;7.970;2022-10-15T02:35:49;16.40;73.50
2409;DHT22;8463;48.094;7.970;2022-10-15T02:38:19;16.40;73.20
2409;DHT22;8463;48.094;7.970;2022-10-15T02:40:47;16.40;73.50
2409;DHT22;8463;48.094;7.970;2022-10-15T02:43:17;16.30;73.50
2409;DHT22;8463;48.094;7.970;2022-10-15T02:45:43;16.30;73.00
2409;DHT22;8463;48.094;7.970;2022-10-15T02:48:09;16.30;73.50
2409;DHT22;8463;48.094;7.970;2022-10-15T02:50:35;16.40;73.20
2409;DHT22;8463;48.094;7.970;2022-10-15T02:53:00;16.30;73.50
2409;DHT22;8463;48.094;7.970;2022-10-15T02:55:26;16.30;73.50
2409;DHT22;8463;48.094;7.970;2022-10-15T02:57:51;16.20;74.10
2409;DHT22;8463;48.094;7.970;2022-10-15T03:00:17;16.10;73.00
2409;DHT22;8463;48.094;7.970;2022-10-15T03:02:44;16.20;73.50
2409;DHT22;8463;48.094;7.970;2022-10-15T03:05:09;16.20;73.40
2409;DHT22;8463;48.094;7.970;2022-10-15T03:07:35;16.20;73.60
2409;DHT22;8463;48.094;7.970;2022-10-15T03:10:01;16.10;73.90
2409;DHT22;8463;48.094;7.970;2022-10-15T03:12:26;16.10;74.00
2409;DHT22;8463;48.094;7.970;2022-10-15T03:14:52;16.10;74.30
2409;DHT22;8463;48.094;7.970;2022-10-15T03:17:18;16.10;74.10
2409;DHT22;8463;48.094;7.970;2022-10-15T03:19:44;16.10;74.20
2409;DHT22;8463;48.094;7.970;2022-10-15T03:22:10;16.00;74.70
2409;DHT22;8463;48.094;7.970;2022-10-15T03:24:35;15.90;74.70
2409;DHT22;8463;48.094;7.970;2022-10-15T03:27:01;15.90;74.80
2409;DHT22;8463;48.094;7.970;2022-10-15T03:29:27;15.90;74.80
2409;DHT22;8463;48.094;7.970;2022-10-15T03:31:52;15.90;75.10
2409;DHT22;8463;48.094;7.970;2022-10-15T03:34:18;15.90;75.70
2409;DHT22;8463;48.094;7.970;2022-10-15T03:36:43;15.90;76.00
2409;DHT22;8463;48.094;7.970;2022-10-15T03:39:10;15.90;76.60
2409;DHT22;8463;48.094;7.970;2022-10-15T03:41:37;15.80;76.00
2409;DHT22;8463;48.094;7.970;2022-10-15T03:44:03;15.70;75.60
2409;DHT22;8463;48.094;7.970;2022-10-15T03:46:30;15.80;76.20
2409;DHT22;8463;48.094;7.970;2022-10-15T03:48:56;15.80;75.90
2409;DHT22;8463;48.094;7.970;2022-10-15T03:51:21;15.70;76.10
2409;DHT22;8463;48.094;7.970;2022-10-15T03:53:47;15.70;76.10
2409;DHT22;8463;48.094;7.970;2022-10-15T03:56:12;15.70;76.50
2409;DHT22;8463;48.094;7.970;2022-10-15T03:58:38;15.80;75.90
2409;DHT22;8463;48.094;7.970;2022-10-15T04:01:12;15.80;76.30
2409;DHT22;8463;48.094;7.970;2022-10-15T04:03:38;15.70;76.20
2409;DHT22;8463;48.094;7.970;2022-10-15T04:06:04;15.70;76.70
2409;DHT22;8463;48.094;7.970;2022-10-15T04:08:29;15.70;77.00
2409;DHT22;8463;48.094;7.970;2022-10-15T04:10:55;15.70;76.80
2409;DHT22;8463;48.094;7.970;2022-10-15T04:13:21;15.70;76.80
2409;DHT22;8463;48.094;7.970;2022-10-15T04:15:47;15.70;77.20
2409;DHT22;8463;48.094;7.970;2022-10-15T04:18:13;15.60;77.20
2409;DHT22;8463;48.094;7.970;2022-10-15T04:20:41;15.60;77.60
2409;DHT22;8463;48.094;7.970;2022-10-15T04:23:10;15.60;77.10
2409;DHT22;8463;48.094;7.970;2022-10-15T04:25:36;15.60;77.10
2409;DHT22;8463;48.094;7.970;2022-10-15T04:28:02;15.60;77.20
2409;DHT22;8463;48.094;7.970;2022-10-15T04:30:27;15.60;77.70
2409;DHT22;8463;48.094;7.970;2022-10-15T04:32:53;15.60;78.00
2409;DHT22;8463;48.094;7.970;2022-10-15T04:35:19;15.50;78.10
2409;DHT22;8463;48.094;7.970;2022-10-15T04:37:45;15.50;78.30
2409;DHT22;8463;48.094;7.970;2022-10-15T04:40:12;15.40;78.50
2409;DHT22;8463;48.094;7.970;2022-10-15T04:42:37;15.30;78.50
2409;DHT22;8463;48.094;7.970;2022-10-15T04:45:04;15.40;78.30
2409;DHT22;8463;48.094;7.970;2022-10-15T04:47:30;15.30;78.70
2409;DHT22;8463;48.094;7.970;2022-10-15T04:49:56;15.30;78.40
2409;DHT22;8463;48.094;7.970;2022-10-15T04:52:22;15.30;78.90
2409;DHT22;8463;48.094;7.970;2022-10-15T04:54:47;15.40;78.60
2409;DHT22;8463;48.094;7.970;2022-10-15T04:57:13;15.30;79.00
2409;DHT22;8463;48.094;7.970;2022-10-15T04:59:39;15.40;78.30
2409;DHT22;8463;48.094;7.970;2022-10-15T05:02:04;15.50;78.30
2409;DHT22;8463;48.094;7.970;2022-10-15T05:04:30;15.60;76.70
2409;DHT22;8463;48.094;7.970;2022-10-15T05:06:55;15.60;76.40
2409;DHT22;8463;48.094;7.970;2022-10-15T05:09:21;15.60;76.70
2409;DHT22;8463;48.094;7.970;2022-10-15T05:11:47;15.70;76.10
2409;DHT22;8463;48.094;7.970;2022-10-15T05:14:12;15.70;75.40
2409;DHT22;8463;48.094;7.970;2022-10-15T05:16:38;15.70;74.70
2409;DHT22;8463;48.094;7.970;2022-10-15T05:19:05;15.70;74.10
2409;DHT22;8463;48.094;7.970;2022-10-15T05:21:33;15.70;74.60
2409;DHT22;8463;48.094;7.970;2022-10-15T05:23:59;15.70;74.30
2409;DHT22;8463;48.094;7.970;2022-10-15T05:26:27;15.70;74.70
2409;DHT22;8463;48.094;7.970;2022-10-15T05:28:55;15.80;72.50
2409;DHT22;8463;48.094;7.970;2022-10-15T05:31:24;15.90;71.90
2409;DHT22;8463;48.094;7.970;2022-10-15T05:33:52;15.90;72.10
2409;DHT22;8463;48.094;7.970;2022-10-15T05:36:26;15.80;72.00
2409;DHT22;8463;48.094;7.970;2022-10-15T05:38:57;15.90;72.50
2409;DHT22;8463;48.094;7.970;2022-10-15T05:41:23;15.80;72.50
2409;DHT22;8463;48.094;7.970;2022-10-15T05:43:51;15.80;72.50
2409;DHT22;8463;48.094;7.970;2022-10-15T05:46:18;15.80;73.00
2409;DHT22;8463;48.094;7.970;2022-10-15T05:48:51;15.70;72.50
2409;DHT22;8463;48.094;7.970;2022-10-15T05:51:17;15.80;73.00
2409;DHT22;8463;48.094;7.970;2022-10-15T05:53:42;15.80;71.40
2409;DHT22;8463;48.094;7.970;2022-10-15T05:56:11;15.90;70.30
2409;DHT22;8463;48.094;7.970;2022-10-15T05:58:37;16.40;71.40
2409;DHT22;8463;48.094;7.970;2022-10-15T06:01:05;15.90;70.10
2409;DHT22;8463;48.094;7.970;2022-10-15T06:03:31;15.80;71.10
2409;DHT22;8463;48.094;7.970;2022-10-15T06:05:57;15.80;70.90
2409;DHT22;8463;48.094;7.970;2022-10-15T06:08:23;15.80;71.10
2409;DHT22;8463;48.094;7.970;2022-10-15T06:10:48;15.80;71.70
2409;DHT22;8463;48.094;7.970;2022-10-15T06:13:15;15.80;72.10
2409;DHT22;8463;48.094;7.970;2022-10-15T06:15:42;15.70;71.50
2409;DHT22;8463;48.094;7.970;2022-10-15T06:18:08;15.70;71.50
2409;DHT22;8463;48.094;7.970;2022-10-15T06:20:35;15.70;72.10
2409;DHT22;8463;48.094;7.970;2022-10-15T06:23:02;15.70;72.00
2409;DHT22;8463;48.094;7.970;2022-10-15T06:25:29;15.70;71.90
2409;DHT22;8463;48.094;7.970;2022-10-15T06:27:55;15.70;70.90
2409;DHT22;8463;48.094;7.970;2022-10-15T06:30:20;15.70;71.30
2409;DHT22;8463;48.094;7.970;2022-10-15T06:32:48;15.60;72.40
2409;DHT22;8463;48.094;7.970;2022-10-15T06:35:14;15.70;71.00
2409;DHT22;8463;48.094;7.970;2022-10-15T06:37:40;15.70;71.60
2409;DHT22;8463;48.094;7.970;2022-10-15T06:40:06;15.60;71.60
2409;DHT22;8463;48.094;7.970;2022-10-15T06:42:32;15.70;71.10
2409;DHT22;8463;48.094;7.970;2022-10-15T06:44:57;15.60;71.40
2409;DHT22;8463;48.094;7.970;2022-10-15T06:47:23;15.80;65.70
2409;DHT22;8463;48.094;7.970;2022-10-15T06:49:48;15.90;67.20
2409;DHT22;8463;48.094;7.970;2022-10-15T06:52:14;15.90;66.90
2409;DHT22;8463;48.094;7.970;2022-10-15T06:54:40;16.00;65.10
2409;DHT22;8463;48.094;7.970;2022-10-15T06:57:05;16.00;66.20
2409;DHT22;8463;48.094;7.970;2022-10-15T06:59:31;16.00;66.60
2409;DHT22;8463;48.094;7.970;2022-10-15T07:04:23;16.10;64.20
2409;DHT22;8463;48.094;7.970;2022-10-15T07:06:49;16.10;64.80
2409;DHT22;8463;48.094;7.970;2022-10-15T07:09:14;16.00;65.60
2409;DHT22;8463;48.094;7.970;2022-10-15T07:11:40;16.00;66.10
2409;DHT22;8463;48.094;7.970;2022-10-15T07:14:06;16.00;66.30
2409;DHT22;8463;48.094;7.970;2022-10-15T07:18:57;16.00;62.10
2409;DHT22;8463;48.094;7.970;2022-10-15T07:21:23;16.10;63.10
2409;DHT22;8463;48.094;7.970;2022-10-15T07:23:49;16.20;62.40
2409;DHT22;8463;48.094;7.970;2022-10-15T07:26:14;16.10;60.50
2409;DHT22;8463;48.094;7.970;2022-10-15T07:28:40;16.20;61.90
2409;DHT22;8463;48.094;7.970;2022-10-15T07:31:06;16.10;62.00
2409;DHT22;8463;48.094;7.970;2022-10-15T07:33:32;16.10;62.50
2409;DHT22;8463;48.094;7.970;2022-10-15T07:36:09;16.10;61.70
2409;DHT22;8463;48.094;7.970;2022-10-15T07:38:35;16.20;60.50
2409;DHT22;8463;48.094;7.970;2022-10-15T07:41:02;16.20;60.20
2409;DHT22;8463;48.094;7.970;2022-10-15T07:43:28;16.20;60.80
2409;DHT22;8463;48.094;7.970;2022-10-15T07:45:55;16.20;60.90
2409;DHT22;8463;48.094;7.970;2022-10-15T07:48:21;16.20;61.60
2409;DHT22;8463;48.094;7.970;2022-10-15T07:50:56;16.20;60.60
2409;DHT22;8463;48.094;7.970;2022-10-15T07:53:22;16.20;61.30
2409;DHT22;8463;48.094;7.970;2022-10-15T07:55:48;16.20;59.60
2409;DHT22;8463;48.094;7.970;2022-10-15T07:58:14;16.20;60.60
2409;DHT22;8463;48.094;7.970;2022-10-15T08:00:40;16.20;61.40
2409;DHT22;8463;48.094;7.970;2022-10-15T08:03:05;16.20;60.50
2409;DHT22;8463;48.094;7.970;2022-10-15T08:05:32;16.30;60.30
2409;DHT22;8463;48.094;7.970;2022-10-15T08:07:58;16.30;59.80
2409;DHT22;8463;48.094;7.970;2022-10-15T08:10:24;16.40;59.00
2409;DHT22;8463;48.094;7.970;2022-10-15T08:12:50;16.40;58.20
2409;DHT22;8463;48.094;7.970;2022-10-15T08:15:16;16.50;56.60
2409;DHT22;8463;48.094;7.970;2022-10-15T08:17:41;16.50;57.50
2409;DHT22;8463;48.094;7.970;2022-10-15T08:20:07;16.50;58.10
2409;DHT22;8463;48.094;7.970;2022-10-15T08:22:33;16.60;57.20
2409;DHT22;8463;48.094;7.970;2022-10-15T08:27:25;16.80;56.70
2409;DHT22;8463;48.094;7.970;2022-10-15T08:29:51;16.80;57.40
2409;DHT22;8463;48.094;7.970;2022-10-15T08:32:16;16.90;53.80
2409;DHT22;8463;48.094;7.970;2022-10-15T08:34:42;16.80;55.10
2409;DHT22;8463;48.094;7.970;2022-10-15T08:37:07;16.90;56.30
2409;DHT22;8463;48.094;7.970;2022-10-15T08:39:34;17.00;54.30
2409;DHT22;8463;48.094;7.970;2022-10-15T08:42:21;16.90;55.20
2409;DHT22;8463;48.094;7.970;2022-10-15T08:45:01;16.90;57.30
2409;DHT22;8463;48.094;7.970;2022-10-15T08:47:39;17.00;53.60
2409;DHT22;8463;48.094;7.970;2022-10-15T08:50:37;17.00;52.70
2409;DHT22;8463;48.094;7.970;2022-10-15T08:53:04;17.00;55.00
2409;DHT22;8463;48.094;7.970;2022-10-15T08:55:38;17.00;55.60
2409;DHT22;8463;48.094;7.970;2022-10-15T09:01:17;17.00;54.00
2409;DHT22;8463;48.094;7.970;2022-10-15T09:06:33;17.10;51.70
2409;DHT22;8463;48.094;7.970;2022-10-15T09:09:17;17.20;52.80
2409;DHT22;8463;48.094;7.970;2022-10-15T09:12:05;17.00;53.20
2409;DHT22;8463;48.094;7.970;2022-10-15T09:14:38;17.10;51.90
2409;DHT22;8463;48.094;7.970;2022-10-15T09:17:20;17.00;52.90
2409;DHT22;8463;48.094;7.970;2022-10-15T09:19:49;17.10;50.80
2409;DHT22;8463;48.094;7.970;2022-10-15T09:22:18;16.90;52.10
2409;DHT22;8463;48.094;7.970;2022-10-15T09:27:35;16.90;53.50
2409;DHT22;8463;48.094;7.970;2022-10-15T09:42:49;16.90;52.60
2409;DHT22;8463;48.094;7.970;2022-10-15T09:45:16;16.80;51.00
2409;DHT22;8463;48.094;7.970;2022-10-15T09:47:43;16.90;52.80
2409;DHT22;8463;48.094;7.970;2022-10-15T09:50:11;16.80;53.30
2409;DHT22;8463;48.094;7.970;2022-10-15T09:55:13;16.90;51.20
2409;DHT22;8463;48.094;7.970;2022-10-15T09:57:46;16.90;51.90
2409;DHT22;8463;48.094;7.970;2022-10-15T10:00:13;16.90;52.60
2409;DHT22;8463;48.094;7.970;2022-10-15T10:02:39;16.80;51.10
2409;DHT22;8463;48.094;7.970;2022-10-15T10:05:30;16.90;52.20
2409;DHT22;8463;48.094;7.970;2022-10-15T10:08:26;16.90;50.30
2409;DHT22;8463;48.094;7.970;2022-10-15T10:10:58;16.90;50.30
2409;DHT22;8463;48.094;7.970;2022-10-15T10:13:29;16.90;50.60
2409;DHT22;8463;48.094;7.970;2022-10-15T10:16:01;16.90;50.70
2409;DHT22;8463;48.094;7.970;2022-10-15T10:18:27;16.90;50.80
2409;DHT22;8463;48.094;7.970;2022-10-15T10:20:56;16.90;51.80
2409;DHT22;8463;48.094;7.970;2022-10-15T10:23:28;16.90;50.50
2409;DHT22;8463;48.094;7.970;2022-10-15T10:25:56;16.90;50.80
2409;DHT22;8463;48.094;7.970;2022-10-15T10:31:06;16.90;51.80
2409;DHT22;8463;48.094;7.970;2022-10-15T10:33:51;16.90;51.00
2409;DHT22;8463;48.094;7.970;2022-10-15T10:36:35;16.90;52.20
2409;DHT22;8463;48.094;7.970;2022-10-15T10:41:56;16.90;51.80
2409;DHT22;8463;48.094;7.970;2022-10-15T10:44:34;16.90;49.00
2409;DHT22;8463;48.094;7.970;2022-10-15T10:47:15;16.90;50.20
2409;DHT22;8463;48.094;7.970;2022-10-15T10:49:49;16.90;50.20
2409;DHT22;8463;48.094;7.970;2022-10-15T10:52:27;16.80;50.10
2409;DHT22;8463;48.094;7.970;2022-10-15T10:54:58;16.90;49.60
2409;DHT22;8463;48.094;7.970;2022-10-15T10:57:56;16.90;51.00
2409;DHT22;8463;48.094;7.970;2022-10-15T11:00:36;16.80;52.90
2409;DHT22;8463;48.094;7.970;2022-10-15T11:03:02;16.60;54.30
2409;DHT22;8463;48.094;7.970;2022-10-15T11:05:32;16.60;55.30
2409;DHT22;8463;48.094;7.970;2022-10-15T11:13:57;16.50;56.20
2409;DHT22;8463;48.094;7.970;2022-10-15T11:16:41;16.50;55.80
2409;DHT22;8463;48.094;7.970;2022-10-15T11:24:58;16.70;52.10
2409;DHT22;8463;48.094;7.970;2022-10-15T11:27:51;16.80;52.70
2409;DHT22;8463;48.094;7.970;2022-10-15T11:36:02;16.90;51.30
2409;DHT22;8463;48.094;7.970;2022-10-15T11:41:24;17.10;49.70
2409;DHT22;8463;48.094;7.970;2022-10-15T11:46:41;17.20;49.80
2409;DHT22;8463;48.094;7.970;2022-10-15T11:49:30;17.30;48.80
2409;DHT22;8463;48.094;7.970;2022-10-15T11:55:11;17.30;46.60
2409;DHT22;8463;48.094;7.970;2022-10-15T11:57:38;17.30;47.40
2409;DHT22;8463;48.094;7.970;2022-10-15T12:00:15;17.40;48.20
2409;DHT22;8463;48.094;7.970;2022-10-15T12:02:44;17.30;44.80
2409;DHT22;8463;48.094;7.970;2022-10-15T12:05:20;17.50;42.70
2409;DHT22;8463;48.094;7.970;2022-10-15T12:07:52;17.50;43.90
2409;DHT22;8463;48.094;7.970;2022-10-15T12:10:38;17.50;44.50
2409;DHT22;8463;48.094;7.970;2022-10-15T12:13:22;17.40;45.10
2409;DHT22;8463;48.094;7.970;2022-10-15T12:16:27;17.50;44.90
2409;DHT22;8463;48.094;7.970;2022-10-15T12:19:20;17.50;45.40
2409;DHT22;8463;48.094;7.970;2022-10-15T12:24:49;17.50;44.90
2409;DHT22;8463;48.094;7.970;2022-10-15T12:29:51;17.60;46.00
2409;DHT22;8463;48.094;7.970;2022-10-15T12:32:28;17.60;43.70
2409;DHT22;8463;48.094;7.970;2022-10-15T12:34:55;17.70;46.70
2409;DHT22;8463;48.094;7.970;2022-10-15T12:37:23;17.60;45.40
2409;DHT22;8463;48.094;7.970;2022-10-15T12:42:55;17.70;45.30
2409;DHT22;8463;48.094;7.970;2022-10-15T12:45:28;17.70;45.90
2409;DHT22;8463;48.094;7.970;2022-10-15T12:50:36;17.60;46.60
2409;DHT22;8463;48.094;7.970;2022-10-15T13:03:51;17.60;47.80
2409;DHT22;8463;48.094;7.970;2022-10-15T13:11:41;17.70;47.70
2409;DHT22;8463;48.094;7.970;2022-10-15T13:16:39;17.70;47.50
2409;DHT22;8463;48.094;7.970;2022-10-15T13:19:16;17.70;45.80
2409;DHT22;8463;48.094;7.970;2022-10-15T13:22:02;17.70;46.30
2409;DHT22;8463;48.094;7.970;2022-10-15T13:24:38;17.70;46.80
2409;DHT22;8463;48.094;7.970;2022-10-15T13:27:20;17.70;47.00
2409;DHT22;8463;48.094;7.970;2022-10-15T13:32:19;17.70;47.70
2409;DHT22;8463;48.094;7.970;2022-10-15T13:34:46;17.70;46.80
2409;DHT22;8463;48.094;7.970;2022-10-15T13:37:16;17.70;47.00
2409;DHT22;8463;48.094;7.970;2022-10-15T13:44:37;17.60;48.90
2409;DHT22;8463;48.094;7.970;2022-10-15T13:49:50;17.60;50.30
2409;DHT22;8463;48.094;7.970;2022-10-15T13:52:16;17.70;49.80
2409;DHT22;8463;48.094;7.970;2022-10-15T13:54:44;17.60;51.90
2409;DHT22;8463;48.094;7.970;2022-10-15T13:57:14;17.60;50.50
2409;DHT22;8463;48.094;7.970;2022-10-15T13:59:43;17.70;51.40
2409;DHT22;8463;48.094;7.970;2022-10-15T14:02:10;17.70;48.30
2409;DHT22;8463;48.094;7.970;2022-10-15T14:04:37;17.70;49.60
2409;DHT22;8463;48.094;7.970;2022-10-15T14:07:23;17.80;47.50
2409;DHT22;8463;48.094;7.970;2022-10-15T14:09:51;17.90;46.00
2409;DHT22;8463;48.094;7.970;2022-10-15T14:14:44;18.00;45.80
2409;DHT22;8463;48.094;7.970;2022-10-15T14:17:23;18.00;45.50
2409;DHT22;8463;48.094;7.970;2022-10-15T14:20:03;18.00;46.80
2409;DHT22;8463;48.094;7.970;2022-10-15T14:22:30;18.00;47.70
2409;DHT22;8463;48.094;7.970;2022-10-15T14:24:56;18.00;48.20
2409;DHT22;8463;48.094;7.970;2022-10-15T14:27:24;18.00;44.40
2409;DHT22;8463;48.094;7.970;2022-10-15T14:29:52;18.10;44.00
2409;DHT22;8463;48.094;7.970;2022-10-15T14:34:58;18.10;43.00
2409;DHT22;8463;48.094;7.970;2022-10-15T14:40:25;18.10;42.40
2409;DHT22;8463;48.094;7.970;2022-10-15T14:45:23;18.00;42.20
2409;DHT22;8463;48.094;7.970;2022-10-15T14:47:52;18.00;42.20
2409;DHT22;8463;48.094;7.970;2022-10-15T14:50:21;18.10;41.80
2409;DHT22;8463;48.094;7.970;2022-10-15T14:52:51;18.00;43.60
2409;DHT22;8463;48.094;7.970;2022-10-15T14:55:30;18.10;41.40
2409;DHT22;8463;48.094;7.970;2022-10-15T14:58:00;18.10;44.70
2409;DHT22;8463;48.094;7.970;2022-10-15T15:00:27;18.00;44.60
2409;DHT22;8463;48.094;7.970;2022-10-15T15:02:54;18.00;45.20
2409;DHT22;8463;48.094;7.970;2022-10-15T15:05:23;18.10;42.90
2409;DHT22;8463;48.094;7.970;2022-10-15T15:07:50;18.10;42.40
2409;DHT22;8463;48.094;7.970;2022-10-15T15:10:16;18.10;41.00
2409;DHT22;8463;48.094;7.970;2022-10-15T15:12:53;18.00;41.20
2409;DHT22;8463;48.094;7.970;2022-10-15T15:15:21;18.00;42.30
2409;DHT22;8463;48.094;7.970;2022-10-15T15:17:47;18.00;40.90
2409;DHT22;8463;48.094;7.970;2022-10-15T15:20:14;18.10;41.80
2409;DHT22;8463;48.094;7.970;2022-10-15T15:22:40;18.00;41.70
2409;DHT22;8463;48.094;7.970;2022-10-15T15:25:16;17.80;43.80
2409;DHT22;8463;48.094;7.970;2022-10-15T15:27:42;17.80;44.50
2409;DHT22;8463;48.094;7.970;2022-10-15T15:30:15;17.90;43.20
2409;DHT22;8463;48.094;7.970;2022-10-15T15:32:41;17.90;43.50
2409;DHT22;8463;48.094;7.970;2022-10-15T15:35:20;17.90;44.00
2409;DHT22;8463;48.094;7.970;2022-10-15T15:37:46;17.80;43.70
2409;DHT22;8463;48.094;7.970;2022-10-15T15:40:12;17.80;45.40
2409;DHT22;8463;48.094;7.970;2022-10-15T15:42:39;17.80;45.90
2409;DHT22;8463;48.094;7.970;2022-10-15T15:45:05;17.70;46.30
2409;DHT22;8463;48.094;7.970;2022-10-15T15:47:31;17.70;46.40
2409;DHT22;8463;48.094;7.970;2022-10-15T15:49:56;17.60;45.30
2409;DHT22;8463;48.094;7.970;2022-10-15T15:52:22;17.60;45.90
2409;DHT22;8463;48.094;7.970;2022-10-15T15:54:48;17.60;47.00
2409;DHT22;8463;48.094;7.970;2022-10-15T15:57:13;17.60;48.20
2409;DHT22;8463;48.094;7.970;2022-10-15T15:59:40;17.60;47.60
2409;DHT22;8463;48.094;7.970;2022-10-15T16:02:06;17.50;48.10
2409;DHT22;8463;48.094;7.970;2022-10-15T16:04:31;17.50;49.60
2409;DHT22;8463;48.094;7.970;2022-10-15T16:09:23;17.40;49.50
2409;DHT22;8463;48.094;7.970;2022-10-15T16:14:17;17.40;49.70
2409;DHT22;8463;48.094;7.970;2022-10-15T16:16:43;17.30;51.90
2409;DHT22;8463;48.094;7.970;2022-10-15T16:19:09;17.40;51.90
2409;DHT22;8463;48.094;7.970;2022-10-15T16:21:34;17.30;52.30
2409;DHT22;8463;48.094;7.970;2022-10-15T16:24:00;17.40;51.50
2409;DHT22;8463;48.094;7.970;2022-10-15T16:26:26;17.40;51.10
2409;DHT22;8463;48.094;7.970;2022-10-15T16:28:52;17.40;52.50
2409;DHT22;8463;48.094;7.970;2022-10-15T16:31:20;17.40;53.10
2409;DHT22;8463;48.094;7.970;2022-10-15T16:33:46;17.30;53.30
2409;DHT22;8463;48.094;7.970;2022-10-15T16:36:12;17.30;53.60
2409;DHT22;8463;48.094;7.970;2022-10-15T16:38:39;17.30;53.90
2409;DHT22;8463;48.094;7.970;2022-10-15T16:41:05;17.30;54.40
2409;DHT22;8463;48.094;7.970;2022-10-15T16:43:32;17.20;53.60
2409;DHT22;8463;48.094;7.970;2022-10-15T16:45:58;17.30;54.20
2409;DHT22;8463;48.094;7.970;2022-10-15T16:48:24;17.20;55.20
2409;DHT22;8463;48.094;7.970;2022-10-15T16:51:06;17.30;53.60
2409;DHT22;8463;48.094;7.970;2022-10-15T16:53:34;17.30;53.70
2409;DHT22;8463;48.094;7.970;2022-10-15T16:56:05;17.40;52.10
2409;DHT22;8463;48.094;7.970;2022-10-15T16:58:31;17.40;51.60
2409;DHT22;8463;48.094;7.970;2022-10-15T17:00:59;17.40;52.10
2409;DHT22;8463;48.094;7.970;2022-10-15T17:03:25;17.40;52.70
2409;DHT22;8463;48.094;7.970;2022-10-15T17:05:55;17.40;52.60
2409;DHT22;8463;48.094;7.970;2022-10-15T17:08:21;17.40;52.70
2409;DHT22;8463;48.094;7.970;2022-10-15T17:13:13;17.60;49.70
2409;DHT22;8463;48.094;7.970;2022-10-15T17:15:39;17.60;49.70
2409;DHT22;8463;48.094;7.970;2022-10-15T17:18:04;17.50;49.60
2409;DHT22;8463;48.094;7.970;2022-10-15T17:20:30;17.50;50.10
2409;DHT22;8463;48.094;7.970;2022-10-15T17:22:57;17.70;48.20
2409;DHT22;8463;48.094;7.970;2022-10-15T17:25:22;17.70;48.70
2409;DHT22;8463;48.094;7.970;2022-10-15T17:27:48;17.70;49.20
2409;DHT22;8463;48.094;7.970;2022-10-15T17:30:14;17.70;48.50
2409;DHT22;8463;48.094;7.970;2022-10-15T17:32:40;17.70;49.00
2409;DHT22;8463;48.094;7.970;2022-10-15T17:35:05;17.60;49.20
2409;DHT22;8463;48.094;7.970;2022-10-15T17:37:32;17.60;49.60
2409;DHT22;8463;48.094;7.970;2022-10-15T17:39:58;17.50;49.60
2409;DHT22;8463;48.094;7.970;2022-10-15T17:44:50;17.60;49.60
2409;DHT22;8463;48.094;7.970;2022-10-15T17:47:16;17.60;49.20
2409;DHT22;8463;48.094;7.970;2022-10-15T17:49:41;17.60;49.90
2409;DHT22;8463;48.094;7.970;2022-10-15T17:52:07;17.60;49.40
2409;DHT22;8463;48.094;7.970;2022-10-15T17:54:33;17.60;49.10
2409;DHT22;8463;48.094;7.970;2022-10-15T17:56:59;17.60;49.70
2409;DHT22;8463;48.094;7.970;2022-10-15T17:59:24;17.60;50.20
2409;DHT22;8463;48.094;7.970;2022-10-15T18:01:50;17.80;47.70
2409;DHT22;8463;48.094;7.970;2022-10-15T18:04:16;17.70;48.20
2409;DHT22;8463;48.094;7.970;2022-10-15T18:06:42;17.80;49.30
2409;DHT22;8463;48.094;7.970;2022-10-15T18:09:09;17.70;49.80
2409;DHT22;8463;48.094;7.970;2022-10-15T18:11:34;17.70;49.80
2409;DHT22;8463;48.094;7.970;2022-10-15T18:14:00;17.70;50.30
2409;DHT22;8463;48.094;7.970;2022-10-15T18:16:27;17.50;52.90
2409;DHT22;8463;48.094;7.970;2022-10-15T18:18:53;17.40;54.10
2409;DHT22;8463;48.094;7.970;2022-10-15T18:21:21;17.40;54.50
2409;DHT22;8463;48.094;7.970;2022-10-15T18:23:47;17.40;54.00
2409;DHT22;8463;48.094;7.970;2022-10-15T18:26:20;17.30;54.40
2409;DHT22;8463;48.094;7.970;2022-10-15T18:28:48;17.40;54.30
2409;DHT22;8463;48.094;7.970;2022-10-15T18:31:14;17.40;53.60
2409;DHT22;8463;48.094;7.970;2022-10-15T18:33:45;17.30;54.70
2409;DHT22;8463;48.094;7.970;2022-10-15T18:36:14;17.30;55.10
2409;DHT22;8463;48.094;7.970;2022-10-15T18:38:40;17.20;58.20
2409;DHT22;8463;48.094;7.970;2022-10-15T18:41:19;17.20;58.70
2409;DHT22;8463;48.094;7.970;2022-10-15T18:43:50;17.00;60.50
2409;DHT22;8463;48.094;7.970;2022-10-15T18:46:15;16.90;61.60
2409;DHT22;8463;48.094;7.970;2022-10-15T18:48:41;16.80;62.80
2409;DHT22;8463;48.094;7.970;2022-10-15T18:51:08;16.80;63.10
2409;DHT22;8463;48.094;7.970;2022-10-15T18:53:35;16.80;63.50